createdAt,value
2022-11-27T00:00:20.814Z,101918.16
2022-11-27T00:03:46.569Z,101916.55
2022-11-27T00:06:52.331Z,101915.05
2022-11-27T00:09:57.509Z,101909.19
2022-11-27T00:13:02.771Z,101907.62
2022-11-27T00:16:08.725Z,101906.91
2022-11-27T00:19:14.613Z,101905.73
2022-11-27T00:22:20.023Z,101901.61
2022-11-27T00:25:25.678Z,101902.42
2022-11-27T00:28:31.134Z,101902.00
2022-11-27T00:31:37.627Z,101899.61
2022-11-27T00:34:43.542Z,101902.42
2022-11-27T00:37:48.768Z,101900.11
2022-11-27T00:40:54.837Z,101902.25
2022-11-27T00:44:00.324Z,101903.30
2022-11-27T00:47:07.089Z,101903.17
2022-11-27T00:50:12.474Z,101906.11
2022-11-27T00:53:20.751Z,101912.73
2022-11-27T00:56:26.703Z,101908.18
2022-11-27T00:59:31.980Z,101904.44
2022-11-27T01:02:37.667Z,101907.03
2022-11-27T01:05:43.109Z,101908.35
2022-11-27T01:08:48.693Z,101906.27
2022-11-27T01:11:56.734Z,101904.02
2022-11-27T01:15:03.203Z,101905.75
2022-11-27T01:18:08.567Z,101901.50
2022-11-27T01:21:14.516Z,101904.91
2022-11-27T01:24:19.923Z,101908.85
2022-11-27T01:27:25.222Z,101913.30
2022-11-27T01:30:30.536Z,101913.27
2022-11-27T01:33:36.708Z,101913.11
2022-11-27T01:36:42.017Z,101910.84
2022-11-27T01:39:47.395Z,101903.11
2022-11-27T01:42:52.826Z,101899.04
2022-11-27T01:45:58.237Z,101900.70
2022-11-27T01:49:21.258Z,101900.31
2022-11-27T01:52:31.253Z,101908.83
2022-11-27T01:55:38.768Z,101905.96
2022-11-27T01:58:44.394Z,101907.26
2022-11-27T02:01:49.793Z,101905.80
2022-11-27T02:04:56.207Z,101899.69
2022-11-27T02:08:03.760Z,101895.67
2022-11-27T02:11:14.684Z,101896.90
2022-11-27T02:14:23.954Z,101902.52
2022-11-27T02:17:31.886Z,101899.62
2022-11-27T02:20:41.583Z,101902.46
2022-11-27T02:23:57.161Z,101900.45
2022-11-27T02:27:10.414Z,101901.96
2022-11-27T02:30:16.353Z,101904.20
2022-11-27T02:33:22.791Z,101901.75
2022-11-27T02:36:31.471Z,101898.55
2022-11-27T02:39:43.868Z,101900.61
2022-11-27T02:43:00.435Z,101896.66
2022-11-27T02:46:07.435Z,101896.63
2022-11-27T02:49:16.973Z,101896.24
2022-11-27T02:52:22.734Z,101883.20
2022-11-27T02:55:31.298Z,101881.19
2022-11-27T02:58:37.928Z,101889.81
2022-11-27T03:01:46.307Z,101893.48
2022-11-27T03:04:53.076Z,101900.23
2022-11-27T03:08:02.273Z,101899.11
2022-11-27T03:11:09.264Z,101901.68
2022-11-27T03:14:15.790Z,101899.98
2022-11-27T03:17:27.892Z,101889.50
2022-11-27T03:20:38.318Z,101886.55
2022-11-27T03:23:43.645Z,101889.39
2022-11-27T03:26:49.751Z,101889.86
2022-11-27T03:29:56.931Z,101888.73
2022-11-27T03:33:02.509Z,101883.44
2022-11-27T03:36:13.093Z,101882.84
2022-11-27T03:39:18.360Z,101879.75
2022-11-27T03:42:26.057Z,101871.52
2022-11-27T03:45:34.820Z,101867.97
2022-11-27T03:48:44.611Z,101857.23
2022-11-27T03:51:54.080Z,101858.27
2022-11-27T03:55:01.461Z,101858.92
2022-11-27T03:58:09.268Z,101860.65
2022-11-27T04:01:17.319Z,101861.91
2022-11-27T04:04:22.681Z,101863.21
2022-11-27T04:07:28.157Z,101865.95
2022-11-27T04:10:33.489Z,101866.37
2022-11-27T04:13:39.186Z,101867.94
2022-11-27T04:16:44.445Z,101864.41
2022-11-27T04:19:50.049Z,101863.89
2022-11-27T04:22:55.429Z,101855.44
2022-11-27T04:26:00.740Z,101846.10
2022-11-27T04:29:06.009Z,101842.86
2022-11-27T04:32:14.280Z,101838.67
2022-11-27T04:35:19.641Z,101832.77
2022-11-27T04:38:27.700Z,101826.27
2022-11-27T04:41:33.059Z,101831.29
2022-11-27T04:44:38.606Z,101830.73
2022-11-27T04:47:47.267Z,101834.23
2022-11-27T04:50:52.747Z,101835.52
2022-11-27T04:54:01.056Z,101846.13
2022-11-27T04:57:06.536Z,101849.02
2022-11-27T05:00:12.995Z,101843.82
2022-11-27T05:03:18.278Z,101843.77
2022-11-27T05:06:23.678Z,101845.63
2022-11-27T05:09:29.087Z,101843.60
2022-11-27T05:12:34.459Z,101847.38
2022-11-27T05:15:39.731Z,101850.08
2022-11-27T05:18:45.193Z,101846.75
2022-11-27T05:21:50.819Z,101849.42
2022-11-27T05:24:56.302Z,101853.84
2022-11-27T05:28:01.834Z,101859.33
2022-11-27T05:31:07.401Z,101860.95
2022-11-27T05:34:12.823Z,101857.58
2022-11-27T05:37:19.953Z,101854.70
2022-11-27T05:40:28.025Z,101858.67
2022-11-27T05:43:33.776Z,101851.08
2022-11-27T05:46:39.173Z,101849.45
2022-11-27T05:49:44.536Z,101855.29
2022-11-27T05:52:49.817Z,101856.73
2022-11-27T05:55:55.366Z,101850.66
2022-11-27T05:59:00.747Z,101848.83
2022-11-27T06:02:06.253Z,101848.91
2022-11-27T06:05:13.115Z,101851.39
2022-11-27T06:08:19.539Z,101854.84
2022-11-27T06:11:24.839Z,101856.61
2022-11-27T06:14:31.807Z,101857.70
2022-11-27T06:17:37.298Z,101857.46
2022-11-27T06:20:45.288Z,101867.48
2022-11-27T06:23:54.031Z,101868.13
2022-11-27T06:27:02.197Z,101871.55
2022-11-27T06:30:10.040Z,101871.95
2022-11-27T06:33:16.833Z,101874.55
2022-11-27T06:36:22.564Z,101873.32
2022-11-27T06:39:27.876Z,101874.02
2022-11-27T06:42:33.233Z,101876.18
2022-11-27T06:45:38.862Z,101874.22
2022-11-27T06:48:46.326Z,101872.05
2022-11-27T06:51:51.682Z,101874.73
2022-11-27T06:54:57.171Z,101873.50
2022-11-27T06:58:02.418Z,101875.52
2022-11-27T07:01:08.767Z,101875.46
2022-11-27T07:04:16.991Z,101875.33
2022-11-27T07:07:22.359Z,101866.52
2022-11-27T07:10:27.831Z,101865.20
2022-11-27T07:13:35.794Z,101866.98
2022-11-27T07:16:41.398Z,101867.95
2022-11-27T07:19:47.155Z,101867.39
2022-11-27T07:22:52.614Z,101865.88
2022-11-27T07:25:57.930Z,101863.17
2022-11-27T07:29:03.362Z,101861.42
2022-11-27T07:32:10.094Z,101859.52
2022-11-27T07:35:15.349Z,101854.88
2022-11-27T07:38:22.465Z,101855.21
2022-11-27T07:41:33.528Z,101854.19
2022-11-27T07:44:39.643Z,101855.73
2022-11-27T07:47:45.234Z,101858.72
2022-11-27T07:50:50.970Z,101861.76
2022-11-27T07:53:56.259Z,101859.74
2022-11-27T07:57:01.590Z,101860.05
2022-11-27T08:00:07.935Z,101861.02
2022-11-27T08:03:13.188Z,101852.68
2022-11-27T08:06:19.754Z,101852.83
2022-11-27T08:09:25.015Z,101854.44
2022-11-27T08:12:30.387Z,101856.44
2022-11-27T08:15:35.909Z,101859.97
2022-11-27T08:18:41.212Z,101861.98
2022-11-27T08:21:46.664Z,101863.02
2022-11-27T08:24:52.860Z,101865.55
2022-11-27T08:27:58.209Z,101864.92
2022-11-27T08:31:04.577Z,101866.38
2022-11-27T08:34:09.854Z,101866.91
2022-11-27T08:37:15.195Z,101859.81
2022-11-27T08:40:20.630Z,101860.71
2022-11-27T08:43:26.234Z,101859.89
2022-11-27T08:46:31.659Z,101861.84
2022-11-27T08:49:39.131Z,101859.89
2022-11-27T08:52:46.864Z,101862.23
2022-11-27T08:55:52.299Z,101862.96
2022-11-27T08:58:57.734Z,101857.97
2022-11-27T09:02:03.110Z,101862.73
2022-11-27T09:05:09.284Z,101855.88
2022-11-27T09:08:20.195Z,101852.34
2022-11-27T09:11:25.837Z,101862.20
2022-11-27T09:14:31.002Z,101856.76
2022-11-27T09:17:36.333Z,101856.31
2022-11-27T09:20:44.269Z,101854.08
2022-11-27T09:23:49.540Z,101850.88
2022-11-27T09:26:54.833Z,101848.88
2022-11-27T09:30:00.591Z,101852.94
2022-11-27T09:33:05.943Z,101849.90
2022-11-27T09:36:12.854Z,101850.33
2022-11-27T09:39:19.567Z,101845.02
2022-11-27T09:42:32.094Z,101843.54
2022-11-27T09:45:40.618Z,101844.35
2022-11-27T09:48:48.221Z,101844.89
2022-11-27T09:51:57.614Z,101845.45
2022-11-27T09:55:12.030Z,101837.71
2022-11-27T09:58:21.123Z,101829.30
2022-11-27T10:01:34.871Z,101823.84
2022-11-27T10:05:12.078Z,101825.80
2022-11-27T10:08:23.049Z,101821.42
2022-11-27T10:11:30.919Z,101821.77
2022-11-27T10:14:44.341Z,101815.20
2022-11-27T10:17:52.380Z,101808.95
2022-11-27T10:20:59.563Z,101807.89
2022-11-27T10:24:08.942Z,101810.30
2022-11-27T10:27:17.637Z,101808.27
2022-11-27T10:30:22.928Z,101809.36
2022-11-27T10:33:31.595Z,101806.67
2022-11-27T10:36:38.788Z,101799.91
2022-11-27T10:39:46.664Z,101799.20
2022-11-27T10:42:55.615Z,101796.41
2022-11-27T10:46:04.950Z,101794.02
2022-11-27T10:49:10.538Z,101788.05
2022-11-27T10:52:17.119Z,101791.84
2022-11-27T10:55:29.578Z,101791.93
2022-11-27T10:58:37.794Z,101788.05
2022-11-27T11:01:44.617Z,101788.41
2022-11-27T11:05:03.465Z,101787.52
2022-11-27T11:08:19.524Z,101787.54
2022-11-27T11:11:27.503Z,101783.90
2022-11-27T11:14:32.826Z,101783.98
2022-11-27T11:17:38.502Z,101777.35
2022-11-27T11:20:47.996Z,101776.15
2022-11-27T11:23:58.572Z,101777.20
2022-11-27T11:27:05.918Z,101776.46
2022-11-27T11:30:21.574Z,101773.20
2022-11-27T11:33:28.223Z,101771.77
2022-11-27T11:36:33.813Z,101773.63
2022-11-27T11:39:44.780Z,101771.02
2022-11-27T11:42:54.886Z,101769.92
2022-11-27T11:46:07.324Z,101768.30
2022-11-27T11:49:21.191Z,101769.88
2022-11-27T11:52:33.732Z,101771.30
2022-11-27T11:55:42.182Z,101771.05
2022-11-27T11:58:53.530Z,101770.08
2022-11-27T12:02:10.227Z,101771.11
2022-11-27T12:05:25.401Z,101764.77
2022-11-27T12:08:37.331Z,101758.46
2022-11-27T12:11:45.808Z,101753.91
2022-11-27T12:14:55.509Z,101752.65
2022-11-27T12:18:02.646Z,101749.79
2022-11-27T12:21:15.109Z,101744.87
2022-11-27T12:24:27.313Z,101742.70
2022-11-27T12:27:49.250Z,101744.54
2022-11-27T12:30:57.836Z,101745.17
2022-11-27T12:34:07.194Z,101745.86
2022-11-27T12:37:22.037Z,101750.62
2022-11-27T12:40:33.752Z,101751.09
2022-11-27T12:43:42.101Z,101750.67
2022-11-27T12:46:52.063Z,101744.02
2022-11-27T12:50:00.796Z,101742.46
2022-11-27T12:53:11.695Z,101741.95
2022-11-27T12:56:24.641Z,101740.22
2022-11-27T12:59:33.860Z,101734.72
2022-11-27T13:02:42.029Z,101726.08
2022-11-27T13:05:49.490Z,101728.67
2022-11-27T13:08:57.743Z,101727.98
2022-11-27T13:12:04.040Z,101723.98
2022-11-27T13:15:18.251Z,101717.49
2022-11-27T13:18:29.434Z,101712.95
2022-11-27T13:21:36.489Z,101713.63
2022-11-27T13:24:42.395Z,101711.27
2022-11-27T13:27:51.719Z,101708.95
2022-11-27T13:30:59.720Z,101703.95
2022-11-27T13:34:07.109Z,101708.39
2022-11-27T13:37:25.808Z,101710.95
2022-11-27T13:40:32.929Z,101708.21
2022-11-27T13:43:42.463Z,101706.02
2022-11-27T13:46:49.487Z,101705.20
2022-11-27T13:50:01.542Z,101699.16
2022-11-27T13:53:07.890Z,101695.89
2022-11-27T13:56:13.808Z,101697.24
2022-11-27T13:59:20.064Z,101700.73
2022-11-27T14:02:25.923Z,101695.34
2022-11-27T14:05:40.188Z,101694.78
2022-11-27T14:08:51.074Z,101690.69
2022-11-27T14:11:56.729Z,101690.80
2022-11-27T14:15:04.214Z,101685.56
2022-11-27T14:18:17.712Z,101681.55
2022-11-27T14:21:27.042Z,101681.77
2022-11-27T14:24:43.890Z,101684.02
2022-11-27T14:27:51.240Z,101680.37
2022-11-27T14:30:57.946Z,101674.84
2022-11-27T14:34:23.362Z,101669.77
2022-11-27T14:37:30.051Z,101667.67
2022-11-27T14:40:35.533Z,101664.86
2022-11-27T14:43:40.835Z,101663.35
2022-11-27T14:46:46.232Z,101656.39
2022-11-27T14:49:56.510Z,101652.15
2022-11-27T14:53:01.917Z,101644.77
2022-11-27T14:56:07.795Z,101640.14
2022-11-27T14:59:14.820Z,101634.80
2022-11-27T15:02:24.629Z,101635.83
2022-11-27T15:05:34.224Z,101638.52
2022-11-27T15:08:39.555Z,101641.98
2022-11-27T15:11:56.231Z,101652.11
2022-11-27T15:15:04.365Z,101652.69
2022-11-27T15:18:10.558Z,101651.36
2022-11-27T15:21:19.508Z,101648.84
2022-11-27T15:24:34.127Z,101647.45
2022-11-27T15:27:47.644Z,101650.57
2022-11-27T15:30:52.976Z,101657.77
2022-11-27T15:34:03.100Z,101655.27
2022-11-27T15:37:21.349Z,101651.75
2022-11-27T15:40:29.770Z,101655.06
2022-11-27T15:43:35.026Z,101658.54
2022-11-27T15:46:42.708Z,101663.57
2022-11-27T15:49:50.618Z,101674.95
2022-11-27T15:52:56.017Z,101680.17
2022-11-27T15:56:01.230Z,101674.70
2022-11-27T15:59:07.097Z,101653.96
2022-11-27T16:02:17.495Z,101643.08
2022-11-27T16:05:26.001Z,101640.44
2022-11-27T16:08:31.421Z,101640.71
2022-11-27T16:11:37.038Z,101638.52
2022-11-27T16:14:42.802Z,101633.95
2022-11-27T16:17:48.617Z,101625.48
2022-11-27T16:20:53.937Z,101623.20
2022-11-27T16:24:00.032Z,101617.17
2022-11-27T16:27:07.231Z,101614.52
2022-11-27T16:30:13.402Z,101613.95
2022-11-27T16:33:20.084Z,101610.80
2022-11-27T16:36:26.175Z,101615.95
2022-11-27T16:39:32.575Z,101613.98
2022-11-27T16:42:37.900Z,101607.48
2022-11-27T16:45:43.813Z,101608.71
2022-11-27T16:48:50.078Z,101601.72
2022-11-27T16:51:55.797Z,101600.59
2022-11-27T16:55:01.308Z,101599.49
2022-11-27T16:58:06.550Z,101599.77
2022-11-27T17:01:13.003Z,101597.50
2022-11-27T17:04:19.658Z,101602.77
2022-11-27T17:07:24.986Z,101594.08
2022-11-27T17:10:30.903Z,101588.39
2022-11-27T17:13:37.779Z,101589.81
2022-11-27T17:16:43.460Z,101586.00
2022-11-27T17:19:55.099Z,101588.58
2022-11-27T17:23:00.691Z,101590.07
2022-11-27T17:26:10.337Z,101590.19
2022-11-27T17:29:16.767Z,101590.84
2022-11-27T17:32:22.305Z,101585.17
2022-11-27T17:35:27.803Z,101582.61
2022-11-27T17:38:33.650Z,101581.58
2022-11-27T17:41:39.895Z,101575.30
2022-11-27T17:44:47.552Z,101578.17
2022-11-27T17:47:53.006Z,101575.31
2022-11-27T17:50:59.047Z,101576.10
2022-11-27T17:54:05.633Z,101570.54
2022-11-27T17:57:11.018Z,101572.54
2022-11-27T18:00:18.688Z,101565.83
2022-11-27T18:03:24.343Z,101566.25
2022-11-27T18:06:32.376Z,101568.42
2022-11-27T18:09:38.304Z,101572.11
2022-11-27T18:12:43.809Z,101566.33
2022-11-27T18:15:49.323Z,101565.55
2022-11-27T18:18:54.888Z,101555.03
2022-11-27T18:22:00.456Z,101553.10
2022-11-27T18:25:06.224Z,101550.22
2022-11-27T18:28:11.542Z,101546.30
2022-11-27T18:31:17.875Z,101546.62
2022-11-27T18:34:23.314Z,101547.08
2022-11-27T18:37:28.684Z,101546.08
2022-11-27T18:40:37.541Z,101543.54
2022-11-27T18:43:43.670Z,101545.54
2022-11-27T18:46:50.751Z,101543.56
2022-11-27T18:49:59.652Z,101540.73
2022-11-27T18:53:05.139Z,101541.08
2022-11-27T18:56:13.489Z,101548.70
2022-11-27T18:59:18.915Z,101554.61
2022-11-27T19:02:24.450Z,101552.08
2022-11-27T19:05:30.007Z,101549.37
2022-11-27T19:08:36.475Z,101548.33
2022-11-27T19:11:42.160Z,101547.77
2022-11-27T19:14:47.433Z,101540.70
2022-11-27T19:17:56.734Z,101534.02
2022-11-27T19:21:02.251Z,101527.08
2022-11-27T19:24:07.869Z,101526.29
2022-11-27T19:27:13.280Z,101519.63
2022-11-27T19:30:18.968Z,101521.36
2022-11-27T19:33:25.303Z,101513.57
2022-11-27T19:36:31.371Z,101506.58
2022-11-27T19:39:36.786Z,101505.56
2022-11-27T19:42:43.609Z,101500.83
2022-11-27T19:45:49.337Z,101501.16
2022-11-27T19:48:57.459Z,101497.23
2022-11-27T19:52:02.926Z,101494.84
2022-11-27T19:55:09.418Z,101492.62
2022-11-27T19:58:15.114Z,101495.21
2022-11-27T20:01:20.902Z,101494.59
2022-11-27T20:04:26.525Z,101492.90
2022-11-27T20:07:31.831Z,101489.70
2022-11-27T20:10:44.174Z,101486.23
2022-11-27T20:13:59.666Z,101487.08
2022-11-27T20:17:06.115Z,101485.23
2022-11-27T20:20:13.570Z,101481.81
2022-11-27T20:23:19.426Z,101483.10
2022-11-27T20:26:25.673Z,101479.68
2022-11-27T20:29:32.237Z,101477.70
2022-11-27T20:32:37.448Z,101477.17
2022-11-27T20:35:43.697Z,101471.53
2022-11-27T20:38:49.147Z,101469.77
2022-11-27T20:41:55.419Z,101471.83
2022-11-27T20:45:05.052Z,101474.53
2022-11-27T20:48:11.875Z,101477.52
2022-11-27T20:51:18.690Z,101478.75
2022-11-27T20:54:24.312Z,101475.20
2022-11-27T20:57:29.747Z,101473.02
2022-11-27T21:00:35.130Z,101469.77
2022-11-27T21:03:42.875Z,101468.88
2022-11-27T21:06:48.588Z,101468.51
2022-11-27T21:09:53.985Z,101469.19
2022-11-27T21:12:59.614Z,101474.31
2022-11-27T21:16:07.743Z,101470.16
2022-11-27T21:19:15.647Z,101468.54
2022-11-27T21:22:21.219Z,101465.73
2022-11-27T21:25:27.224Z,101466.30
2022-11-27T21:28:33.541Z,101465.60
2022-11-27T21:31:42.682Z,101461.86
2022-11-27T21:34:52.165Z,101461.27
2022-11-27T21:37:57.519Z,101459.29
2022-11-27T21:41:02.851Z,101461.00
2022-11-27T21:44:08.478Z,101459.01
2022-11-27T21:47:13.877Z,101453.77
2022-11-27T21:50:19.321Z,101453.38
2022-11-27T21:53:25.430Z,101452.81
2022-11-27T21:56:34.190Z,101448.33
2022-11-27T21:59:39.418Z,101441.97
2022-11-27T22:02:46.020Z,101444.27
2022-11-27T22:05:59.082Z,101441.34
2022-11-27T22:09:05.097Z,101443.31
2022-11-27T22:12:10.522Z,101440.34
2022-11-27T22:15:15.869Z,101444.13
2022-11-27T22:18:21.216Z,101442.95
2022-11-27T22:21:28.438Z,101437.08
2022-11-27T22:24:43.497Z,101441.20
2022-11-27T22:27:49.232Z,101441.36
2022-11-27T22:30:54.664Z,101436.73
2022-11-27T22:34:00.472Z,101434.42
2022-11-27T22:37:08.881Z,101429.55
2022-11-27T22:40:15.555Z,101422.66
2022-11-27T22:43:20.945Z,101421.07
2022-11-27T22:46:27.605Z,101422.23
2022-11-27T22:49:33.060Z,101419.40
2022-11-27T22:52:38.467Z,101416.70
2022-11-27T22:55:43.990Z,101412.20
2022-11-27T22:58:49.353Z,101409.82
2022-11-27T23:01:54.918Z,101411.71
2022-11-27T23:05:00.467Z,101409.73
2022-11-27T23:08:06.026Z,101414.36
2022-11-27T23:11:14.568Z,101415.14
2022-11-27T23:14:19.999Z,101416.30
2022-11-27T23:17:25.489Z,101417.41
2022-11-27T23:20:30.781Z,101418.48
2022-11-27T23:23:36.744Z,101418.42
2022-11-27T23:26:41.918Z,101415.10
2022-11-27T23:29:47.240Z,101415.44
2022-11-27T23:32:52.782Z,101416.41
2022-11-27T23:36:00.163Z,101418.64
2022-11-27T23:39:06.959Z,101415.34
2022-11-27T23:42:12.309Z,101410.48
2022-11-27T23:45:19.065Z,101410.41
2022-11-27T23:48:24.371Z,101413.40
2022-11-27T23:51:31.837Z,101414.52
2022-11-27T23:54:37.212Z,101414.71
2022-11-27T23:57:44.769Z,101416.36
